Time;durP1;ratioP1;P1;durP2;ratioP2;P2;SDS_P1;SDS_P2;PMS_P1;PMS_P2;Temp;Humidity;BMP_temperature;BMP_pressure;BME280_temperature;BME280_humidity;BME280_pressure;Samples;Min_cycle;Max_cycle;Signal;HPM_P1;HPM_P2
2023/07/13 00:01:51;;;;;;;3.30;0.82;;;16.20;99.90;;;;;;7368674;32;20115;-54
2023/07/13 00:06:00;;;;;;;5.53;1.20;;;16.20;99.90;;;;;;7375421;32;20104;-55
2023/07/13 00:10:03;;;;;;;5.90;1.20;;;16.30;99.90;;;;;;7368820;32;20194;-54
2023/07/13 00:14:05;;;;;;;9.02;1.20;;;16.20;99.90;;;;;;7370259;32;20527;-55
2023/07/13 00:18:07;;;;;;;4.30;1.00;;;16.10;99.90;;;;;;7356660;32;20107;-56
2023/07/13 00:22:09;;;;;;;4.68;1.00;;;16.10;99.90;;;;;;7369690;32;20182;-55
2023/07/13 00:26:12;;;;;;;8.45;1.10;;;16.10;99.90;;;;;;7366500;32;20343;-55
2023/07/13 00:30:15;;;;;;;4.68;0.90;;;15.80;99.90;;;;;;7368190;32;20106;-56
2023/07/13 00:34:17;;;;;;;4.57;0.98;;;15.70;99.90;;;;;;7368768;32;20160;-56
2023/07/13 00:38:19;;;;;;;1.62;0.68;;;15.60;99.90;;;;;;7366082;32;20107;-55
2023/07/13 00:42:22;;;;;;;5.00;1.20;;;15.40;99.90;;;;;;7369498;32;20212;-55
2023/07/13 00:46:28;;;;;;;4.22;1.40;;;15.20;99.90;;;;;;7367760;32;20145;-55
2023/07/13 00:50:30;;;;;;;4.57;1.10;;;15.10;99.90;;;;;;7374209;32;20111;-55
2023/07/13 00:54:41;;;;;;;5.30;1.17;;;15.00;99.90;;;;;;7374814;32;20220;-55
2023/07/13 00:58:43;;;;;;;6.07;1.42;;;14.90;99.90;;;;;;7369565;32;20135;-55
2023/07/13 01:02:46;;;;;;;9.45;1.62;;;14.80;99.90;;;;;;7366577;32;20157;-55
2023/07/13 01:06:48;;;;;;;4.45;1.23;;;14.80;99.90;;;;;;7371869;32;20550;-55
2023/07/13 01:10:55;;;;;;;3.25;0.90;;;14.80;99.90;;;;;;7373502;32;20137;-55
2023/07/13 01:15:01;;;;;;;5.35;1.62;;;14.80;99.90;;;;;;7369151;32;20130;-55
2023/07/13 01:19:15;;;;;;;11.45;1.40;;;14.80;99.90;;;;;;7368553;32;20103;-55
2023/07/13 01:23:17;;;;;;;4.05;1.20;;;14.80;99.90;;;;;;7373372;32;20129;-55
2023/07/13 01:27:24;;;;;;;3.55;1.25;;;15.00;99.90;;;;;;7367649;32;20562;-55
2023/07/13 01:31:26;;;;;;;3.58;1.25;;;15.10;99.90;;;;;;7370787;32;20163;-56
2023/07/13 01:35:28;;;;;;;4.87;1.25;;;15.10;99.90;;;;;;7372633;32;20099;-56
2023/07/13 01:39:31;;;;;;;6.37;1.23;;;15.10;99.90;;;;;;7359234;32;20137;-55
2023/07/13 01:43:33;;;;;;;7.68;1.40;;;15.10;99.90;;;;;;7364244;32;20110;-55
2023/07/13 01:47:35;;;;;;;7.07;1.58;;;15.00;99.90;;;;;;7368338;32;20267;-55
2023/07/13 01:51:37;;;;;;;5.75;1.30;;;15.10;99.90;;;;;;7371795;32;20123;-55
2023/07/13 01:55:39;;;;;;;6.18;1.27;;;15.00;99.90;;;;;;7363202;32;20512;-55
2023/07/13 01:59:40;;;;;;;3.72;0.95;;;15.10;99.90;;;;;;7352732;32;20143;-55
2023/07/13 02:03:42;;;;;;;4.32;1.02;;;15.00;99.90;;;;;;7368583;32;20215;-55
2023/07/13 02:07:44;;;;;;;4.62;1.30;;;14.90;99.90;;;;;;7365842;32;20171;-56
2023/07/13 02:11:46;;;;;;;6.75;1.17;;;15.00;99.90;;;;;;7371603;32;20575;-55
2023/07/13 02:15:51;;;;;;;6.22;1.73;;;14.80;99.90;;;;;;7364106;32;20210;-56
2023/07/13 02:19:53;;;;;;;3.12;1.10;;;14.70;99.90;;;;;;7371492;32;20274;-56
2023/07/13 02:23:57;;;;;;;3.80;1.02;;;14.70;99.90;;;;;;7369417;32;20459;-56
2023/07/13 02:27:59;;;;;;;4.62;1.20;;;14.50;99.90;;;;;;7373807;32;20170;-56
2023/07/13 02:32:01;;;;;;;3.20;1.25;;;14.40;99.90;;;;;;7373365;32;20111;-58
2023/07/13 02:36:05;;;;;;;7.80;1.87;;;14.40;99.90;;;;;;7376605;32;20194;-56
2023/07/13 02:40:08;;;;;;;4.78;1.08;;;14.40;99.90;;;;;;7371117;32;20113;-55
2023/07/13 02:44:13;;;;;;;4.22;1.20;;;14.40;99.90;;;;;;7370271;32;20182;-56
2023/07/13 02:48:15;;;;;;;4.05;1.10;;;14.40;99.90;;;;;;7370560;32;20583;-56
2023/07/13 02:52:16;;;;;;;7.30;1.10;;;14.60;99.90;;;;;;7374477;32;20489;-57
2023/07/13 02:56:30;;;;;;;6.85;1.77;;;14.70;99.90;;;;;;7374005;32;20138;-56
2023/07/13 03:00:32;;;;;;;4.70;1.12;;;14.70;99.90;;;;;;7375479;32;20103;-56
2023/07/13 03:04:36;;;;;;;4.10;1.62;;;14.80;99.90;;;;;;7371772;32;20127;-57
2023/07/13 03:08:38;;;;;;;5.18;1.10;;;14.80;99.90;;;;;;7368889;32;20170;-55
2023/07/13 03:12:40;;;;;;;3.80;1.37;;;14.80;99.90;;;;;;7377131;32;20211;-56
2023/07/13 03:16:41;;;;;;;6.47;1.52;;;14.80;99.90;;;;;;7371919;32;20137;-55
2023/07/13 03:20:43;;;;;;;5.53;1.48;;;14.80;99.90;;;;;;7368680;32;20199;-57
2023/07/13 03:24:46;;;;;;;5.10;1.25;;;14.80;99.90;;;;;;7372062;32;20203;-56
2023/07/13 03:28:48;;;;;;;4.07;1.27;;;14.70;99.90;;;;;;7369738;32;20252;-56
2023/07/13 03:32:50;;;;;;;7.90;1.37;;;14.80;99.90;;;;;;7371437;32;20217;-56
2023/07/13 03:36:55;;;;;;;6.95;1.33;;;14.90;99.90;;;;;;7369947;32;20111;-56
2023/07/13 03:40:56;;;;;;;5.15;1.12;;;15.10;99.90;;;;;;7377647;32;20126;-56
2023/07/13 03:44:58;;;;;;;3.85;1.37;;;15.10;99.90;;;;;;7379003;32;20587;-56
2023/07/13 03:49:01;;;;;;;3.80;1.02;;;15.10;99.90;;;;;;7379358;32;20103;-56
2023/07/13 03:53:03;;;;;;;8.10;1.30;;;15.00;99.90;;;;;;7371354;32;20460;-55
2023/07/13 03:57:05;;;;;;;6.05;1.62;;;15.10;99.90;;;;;;7371914;32;20270;-56
2023/07/13 04:01:09;;;;;;;6.32;1.10;;;15.20;99.90;;;;;;7374602;32;20133;-56
2023/07/13 04:05:11;;;;;;;4.82;1.17;;;15.20;99.90;;;;;;7370847;32;20528;-55
2023/07/13 04:09:13;;;;;;;7.93;1.37;;;15.20;99.90;;;;;;7374697;32;20324;-55
2023/07/13 04:13:15;;;;;;;6.97;1.23;;;15.30;99.90;;;;;;7369826;32;20129;-56
2023/07/13 04:17:17;;;;;;;3.50;0.93;;;15.40;99.90;;;;;;7372895;32;20153;-56
2023/07/13 04:21:18;;;;;;;11.23;1.52;;;15.50;99.90;;;;;;7372702;32;20136;-56
2023/07/13 04:25:21;;;;;;;6.05;1.30;;;15.50;99.90;;;;;;7373528;32;20107;-56
2023/07/13 04:29:23;;;;;;;6.10;1.52;;;15.60;99.90;;;;;;7370321;32;20407;-55
2023/07/13 04:33:27;;;;;;;8.73;1.48;;;15.70;99.90;;;;;;7363135;32;20174;-55
2023/07/13 04:37:29;;;;;;;7.90;1.42;;;15.70;99.90;;;;;;7382012;32;21644;-56
2023/07/13 04:41:31;;;;;;;5.53;1.35;;;15.80;99.90;;;;;;7371445;32;20160;-56
2023/07/13 04:45:35;;;;;;;5.85;1.40;;;15.90;99.90;;;;;;7366085;32;20551;-55
2023/07/13 04:49:36;;;;;;;4.65;1.50;;;16.00;99.90;;;;;;7374506;32;20110;-58
2023/07/13 04:53:38;;;;;;;5.82;1.45;;;16.00;99.90;;;;;;7369278;32;20247;-57
2023/07/13 04:57:40;;;;;;;8.25;1.50;;;16.00;99.90;;;;;;7364864;32;20104;-57
2023/07/13 05:01:42;;;;;;;6.72;1.33;;;16.10;99.90;;;;;;7372334;32;20491;-56
2023/07/13 05:05:55;;;;;;;6.18;1.90;;;16.10;99.90;;;;;;7372912;32;20232;-58
2023/07/13 05:09:57;;;;;;;6.00;1.70;;;16.20;99.90;;;;;;7379464;32;20692;-57
2023/07/13 05:14:01;;;;;;;8.60;1.52;;;16.20;99.90;;;;;;7361911;32;20107;-57
2023/07/13 05:18:02;;;;;;;8.45;1.75;;;16.20;99.90;;;;;;7372539;32;20505;-56
2023/07/13 05:22:04;;;;;;;10.45;1.98;;;16.30;99.90;;;;;;7369119;32;20642;-56
2023/07/13 05:26:06;;;;;;;8.55;1.62;;;16.30;99.90;;;;;;7368072;32;20114;-57
2023/07/13 05:30:11;;;;;;;5.95;1.65;;;16.40;99.90;;;;;;7375911;32;20175;-57
2023/07/13 05:34:13;;;;;;;8.38;1.67;;;16.50;99.90;;;;;;7372552;32;20111;-57
2023/07/13 05:38:15;;;;;;;7.60;1.90;;;16.50;99.90;;;;;;7367337;32;20734;-57
2023/07/13 05:42:17;;;;;;;6.32;1.90;;;16.50;99.90;;;;;;7366741;32;20122;-57
2023/07/13 05:46:19;;;;;;;11.07;2.17;;;16.50;99.90;;;;;;7375003;32;20115;-59
2023/07/13 05:50:21;;;;;;;9.80;2.12;;;16.40;99.90;;;;;;7376073;32;20175;-57
2023/07/13 05:54:23;;;;;;;10.13;2.50;;;16.50;99.90;;;;;;7370664;32;20133;-56
2023/07/13 05:58:25;;;;;;;8.82;1.92;;;16.50;99.90;;;;;;7359487;32;20189;-57
2023/07/13 06:02:28;;;;;;;13.23;2.85;;;16.90;99.90;;;;;;7361148;32;20132;-57
2023/07/13 06:06:30;;;;;;;9.93;2.20;;;17.20;99.90;;;;;;7365364;32;20253;-57
2023/07/13 06:10:38;;;;;;;9.05;1.95;;;17.60;99.90;;;;;;7363805;32;20141;-57
2023/07/13 06:14:39;;;;;;;9.45;1.70;;;17.90;99.90;;;;;;7364323;32;20106;-57
2023/07/13 06:18:42;;;;;;;10.38;2.05;;;18.20;99.90;;;;;;7370242;32;20252;-57
2023/07/13 06:22:44;;;;;;;10.45;2.42;;;18.70;99.90;;;;;;7369740;32;20144;-58
2023/07/13 06:26:46;;;;;;;7.45;1.87;;;19.10;99.90;;;;;;7366643;32;20110;-55
2023/07/13 06:30:47;;;;;;;10.13;2.10;;;18.80;99.90;;;;;;7371721;32;20219;-59
2023/07/13 06:34:51;;;;;;;10.57;2.00;;;18.60;99.90;;;;;;7373963;32;20581;-58
2023/07/13 06:38:53;;;;;;;8.88;2.10;;;18.60;99.90;;;;;;7369307;32;20382;-58
2023/07/13 06:42:55;;;;;;;10.32;2.20;;;18.80;99.90;;;;;;7372990;32;20225;-58
2023/07/13 06:46:57;;;;;;;7.12;2.03;;;18.90;99.90;;;;;;7371243;32;20095;-56
2023/07/13 06:50:59;;;;;;;8.30;2.15;;;18.80;99.90;;;;;;7369310;32;20438;-56
2023/07/13 06:55:01;;;;;;;7.53;2.45;;;18.90;99.90;;;;;;7370928;32;20133;-56
2023/07/13 06:59:02;;;;;;;8.18;2.20;;;19.50;99.90;;;;;;7373034;32;20115;-56
2023/07/13 07:03:04;;;;;;;10.02;2.15;;;19.90;99.90;;;;;;7378718;32;20115;-57
2023/07/13 07:07:06;;;;;;;9.93;2.42;;;19.70;99.90;;;;;;7372900;32;20103;-57
2023/07/13 07:11:13;;;;;;;11.70;2.80;;;19.20;99.90;;;;;;7360491;32;20138;-57
2023/07/13 07:15:15;;;;;;;9.43;1.92;;;19.00;99.90;;;;;;7373937;32;20672;-56
2023/07/13 07:19:17;;;;;;;8.40;2.45;;;18.80;99.90;;;;;;7372908;32;20505;-58
2023/07/13 07:23:19;;;;;;;7.68;2.33;;;18.60;99.90;;;;;;7375856;32;20238;-57
2023/07/13 07:27:21;;;;;;;10.82;2.70;;;18.50;99.90;;;;;;7366325;32;20142;-57
2023/07/13 07:31:26;;;;;;;10.68;2.53;;;18.50;99.90;;;;;;7370188;32;20103;-58
2023/07/13 07:35:30;;;;;;;10.73;2.67;;;18.50;99.90;;;;;;7366125;32;20809;-58
2023/07/13 07:39:37;;;;;;;10.10;3.10;;;18.60;99.90;;;;;;7374680;32;20206;-58
2023/07/13 07:43:44;;;;;;;9.60;3.03;;;18.60;99.90;;;;;;7372222;32;20468;-58
2023/07/13 07:47:46;;;;;;;12.27;2.47;;;18.50;99.90;;;;;;7371052;32;20494;-58
2023/07/13 07:51:48;;;;;;;14.25;2.53;;;18.60;99.90;;;;;;7379444;32;20125;-57
2023/07/13 07:55:51;;;;;;;5.80;2.10;;;18.70;99.90;;;;;;7376979;32;20533;-57
2023/07/13 07:59:55;;;;;;;7.93;2.40;;;18.90;99.90;;;;;;7375134;32;20336;-56
2023/07/13 08:04:00;;;;;;;9.10;2.42;;;18.90;99.90;;;;;;7367663;32;20104;-56
2023/07/13 08:08:05;;;;;;;9.13;2.70;;;19.00;99.90;;;;;;7377518;32;20234;-56
2023/07/13 08:12:07;;;;;;;8.80;2.40;;;19.50;99.90;;;;;;7365383;32;20126;-56
2023/07/13 08:16:12;;;;;;;8.75;2.55;;;19.90;99.90;;;;;;7371306;32;20126;-56
2023/07/13 08:20:14;;;;;;;10.75;2.60;;;20.00;99.90;;;;;;7371686;32;20162;-56
2023/07/13 08:24:18;;;;;;;11.55;2.20;;;20.00;99.90;;;;;;7380055;32;20421;-56
2023/07/13 08:28:21;;;;;;;8.30;2.53;;;20.00;99.90;;;;;;7362992;32;20183;-56
2023/07/13 08:32:23;;;;;;;7.90;2.28;;;20.40;99.90;;;;;;7361608;32;20107;-56
2023/07/13 08:36:26;;;;;;;9.40;2.37;;;20.60;99.90;;;;;;7366561;32;20202;-56
2023/07/13 08:40:28;;;;;;;13.35;2.70;;;20.40;99.90;;;;;;7371100;32;20099;-56
2023/07/13 08:45:11;;;;;;;7.97;2.10;;;20.60;99.90;;;;;;7370706;32;20111;-57
2023/07/13 08:49:16;;;;;;;12.50;2.15;;;20.80;99.90;;;;;;7332025;32;20470;-57
2023/07/13 08:53:19;;;;;;;8.60;2.50;;;20.60;99.90;;;;;;7363064;32;20118;-57
2023/07/13 08:57:31;;;;;;;7.35;2.35;;;20.50;99.90;;;;;;7370139;32;20138;-57
2023/07/13 09:01:46;;;;;;;8.60;2.37;;;20.40;99.90;;;;;;7360988;32;20111;-57
2023/07/13 09:05:53;;;;;;;8.65;2.22;;;20.20;99.90;;;;;;7378091;32;20091;-58
2023/07/13 09:10:24;;;;;;;7.77;2.07;;;20.50;99.90;;;;;;7372849;32;20194;-58
2023/07/13 09:14:34;;;;;;;9.30;2.55;;;20.50;99.90;;;;;;7368837;32;20115;-57
2023/07/13 09:18:40;;;;;;;9.05;2.72;;;20.80;99.90;;;;;;7378113;32;20119;-57
2023/07/13 09:22:46;;;;;;;8.50;2.35;;;21.00;99.90;;;;;;7369391;32;20111;-57
2023/07/13 09:26:48;;;;;;;8.60;2.47;;;20.80;99.90;;;;;;7375483;32;20457;-58
2023/07/13 09:31:04;;;;;;;10.23;2.55;;;20.90;99.90;;;;;;7372800;32;20548;-57
2023/07/13 09:35:12;;;;;;;8.75;2.33;;;20.80;99.90;;;;;;7374999;32;20651;-57
2023/07/13 09:39:29;;;;;;;7.35;2.62;;;20.70;99.90;;;;;;7373052;32;20107;-58
2023/07/13 09:43:31;;;;;;;6.97;2.37;;;20.60;99.90;;;;;;7366435;32;20371;-58
2023/07/13 09:47:39;;;;;;;7.97;2.20;;;20.70;99.90;;;;;;7371226;32;20111;-57
2023/07/13 09:51:44;;;;;;;9.68;2.50;;;20.80;99.90;;;;;;7370568;32;20107;-57
2023/07/13 09:55:47;;;;;;;8.35;1.90;;;20.80;99.90;;;;;;7370635;32;20525;-57
2023/07/13 09:59:56;;;;;;;8.15;2.10;;;20.70;99.90;;;;;;7373065;32;20119;-57
2023/07/13 10:03:58;;;;;;;7.80;1.83;;;21.00;99.90;;;;;;7347402;32;20137;-58
2023/07/13 10:08:00;;;;;;;4.72;1.80;;;21.20;99.90;;;;;;7371243;32;20486;-57
2023/07/13 10:12:02;;;;;;;8.65;2.25;;;21.30;99.90;;;;;;7370120;32;20248;-57
2023/07/13 10:16:06;;;;;;;11.57;2.78;;;21.70;99.90;;;;;;7373519;32;20108;-58
2023/07/13 10:20:12;;;;;;;6.28;1.70;;;21.70;99.90;;;;;;7374713;32;20215;-58
2023/07/13 10:24:20;;;;;;;7.35;1.75;;;21.90;99.90;;;;;;7360350;32;20111;-57
2023/07/13 10:28:31;;;;;;;5.85;1.80;;;22.60;99.90;;;;;;7372756;32;20156;-61
2023/07/13 10:32:33;;;;;;;9.10;1.42;;;22.80;99.90;;;;;;7369395;32;20257;-58
2023/07/13 10:36:47;;;;;;;10.18;2.25;;;22.90;99.90;;;;;;7373429;32;20133;-57
2023/07/13 10:41:05;;;;;;;6.95;1.75;;;22.60;99.90;;;;;;7371656;32;20580;-58
2023/07/13 10:45:22;;;;;;;5.72;1.50;;;22.40;99.90;;;;;;7365400;32;20151;-58
2023/07/13 10:49:26;;;;;;;9.20;1.90;;;22.50;99.90;;;;;;7369431;32;20682;-57
2023/07/13 10:53:30;;;;;;;7.82;1.70;;;22.70;99.90;;;;;;7371771;32;20123;-58
2023/07/13 10:57:42;;;;;;;6.57;1.50;;;22.40;99.90;;;;;;7369338;32;20095;-57
2023/07/13 11:02:10;;;;;;;7.10;1.92;;;22.30;99.90;;;;;;7370424;32;20586;-57
2023/07/13 11:06:12;;;;;;;6.22;1.80;;;22.40;99.90;;;;;;7376500;32;20164;-58
2023/07/13 11:10:46;;;;;;;8.88;1.95;;;22.10;99.90;;;;;;7376818;32;20132;-57
2023/07/13 11:14:54;;;;;;;7.55;1.77;;;22.30;99.90;;;;;;7364724;32;20140;-57
2023/07/13 11:19:02;;;;;;;5.45;1.73;;;22.00;99.90;;;;;;7377182;32;20190;-57
2023/07/13 11:23:20;;;;;;;5.47;1.60;;;21.80;99.90;;;;;;7373968;32;20353;-58
2023/07/13 11:27:45;;;;;;;5.78;1.90;;;21.80;99.90;;;;;;7381669;32;20135;-57
2023/07/13 11:31:53;;;;;;;7.28;1.70;;;22.40;99.90;;;;;;7371874;32;20106;-58
2023/07/13 11:36:21;;;;;;;3.65;1.20;;;22.90;99.90;;;;;;7375275;32;20115;-58
2023/07/13 11:40:27;;;;;;;;;;;23.50;99.90;;;;;;7379258;32;20212;-58
2023/07/13 11:44:34;;;;;;;5.80;1.60;;;23.50;99.90;;;;;;7374177;32;20021;-58
2023/07/13 11:48:37;;;;;;;4.90;1.42;;;24.10;99.90;;;;;;7380256;32;20203;-58
2023/07/13 11:52:40;;;;;;;6.45;1.60;;;24.30;99.90;;;;;;7375126;32;20807;-57
2023/07/13 11:56:42;;;;;;;5.00;1.50;;;24.90;99.90;;;;;;7376656;32;20207;-57
2023/07/13 12:00:44;;;;;;;2.78;1.17;;;24.70;99.90;;;;;;7359187;32;20230;-57
2023/07/13 12:04:46;;;;;;;9.73;1.30;;;24.50;99.90;;;;;;7379113;32;20704;-58
2023/07/13 12:08:48;;;;;;;5.87;1.50;;;24.30;99.90;;;;;;7382808;32;20111;-57
2023/07/13 12:12:56;;;;;;;6.35;1.48;;;24.30;99.90;;;;;;7374581;32;20275;-57
2023/07/13 12:16:57;;;;;;;2.65;1.33;;;24.20;99.90;;;;;;7374775;32;20183;-57
2023/07/13 12:20:59;;;;;;;3.22;1.10;;;24.20;99.90;;;;;;7371759;32;20130;-57
2023/07/13 12:25:01;;;;;;;5.32;1.40;;;24.60;99.90;;;;;;7372240;32;20131;-58
2023/07/13 12:29:06;;;;;;;4.82;1.37;;;25.40;99.90;;;;;;7371226;32;20219;-58
2023/07/13 12:33:12;;;;;;;4.43;1.10;;;25.60;99.90;;;;;;7377757;32;20616;-58
2023/07/13 12:37:15;;;;;;;7.68;1.20;;;25.60;99.90;;;;;;7373670;32;20468;-58
2023/07/13 12:41:17;;;;;;;6.12;1.30;;;24.40;99.90;;;;;;7375259;32;20122;-57
2023/07/13 12:45:25;;;;;;;7.75;1.33;;;23.50;99.90;;;;;;7375752;32;20540;-58
2023/07/13 12:49:32;;;;;;;4.53;1.10;;;23.10;99.90;;;;;;7373928;32;20103;-57
2023/07/13 12:53:41;;;;;;;4.40;1.15;;;23.20;99.90;;;;;;7369299;32;20273;-58
2023/07/13 12:58:04;;;;;;;5.97;1.27;;;22.90;99.90;;;;;;7376846;32;20106;-57
2023/07/13 13:02:34;;;;;;;6.20;1.20;;;22.70;99.90;;;;;;7372462;32;20887;-57
2023/07/13 13:06:37;;;;;;;4.47;1.00;;;22.40;99.90;;;;;;7377995;32;20215;-58
2023/07/13 13:10:39;;;;;;;6.70;1.17;;;22.20;99.90;;;;;;7367734;32;20111;-58
2023/07/13 13:14:41;;;;;;;5.90;1.23;;;22.10;99.90;;;;;;7368141;32;20423;-57
2023/07/13 13:18:43;;;;;;;3.78;1.70;;;22.00;99.90;;;;;;7376811;32;20714;-58
2023/07/13 13:22:45;;;;;;;5.95;1.40;;;22.30;99.90;;;;;;7371000;32;20111;-58
2023/07/13 13:26:48;;;;;;;4.95;1.00;;;22.60;99.90;;;;;;7372527;32;20214;-58
2023/07/13 13:30:51;;;;;;;3.55;1.30;;;22.60;99.90;;;;;;7371175;32;20103;-57
2023/07/13 13:34:53;;;;;;;4.07;1.00;;;23.10;99.90;;;;;;7371970;32;20508;-56
2023/07/13 13:38:55;;;;;;;2.80;1.05;;;23.50;99.90;;;;;;7371004;32;20158;-56
2023/07/13 13:42:57;;;;;;;4.50;1.40;;;23.30;99.90;;;;;;7375282;32;20270;-56
2023/07/13 13:47:03;;;;;;;4.53;1.35;;;23.00;99.90;;;;;;7369654;32;20127;-56
2023/07/13 13:51:23;;;;;;;3.50;1.00;;;22.40;99.90;;;;;;7368661;32;20449;-56
2023/07/13 13:55:25;;;;;;;5.30;1.23;;;22.00;99.90;;;;;;7374400;32;20115;-56
2023/07/13 13:59:27;;;;;;;3.25;1.08;;;21.80;99.90;;;;;;7366339;32;20210;-57
2023/07/13 14:03:29;;;;;;;4.55;1.50;;;21.80;99.90;;;;;;7377762;32;20099;-58
2023/07/13 14:07:31;;;;;;;4.68;1.20;;;22.30;99.90;;;;;;7367340;32;20747;-58
2023/07/13 14:11:33;;;;;;;2.12;0.95;;;23.00;99.90;;;;;;7373216;32;20161;-57
2023/07/13 14:15:35;;;;;;;3.22;1.12;;;23.50;99.90;;;;;;7366025;32;20265;-58
2023/07/13 14:19:37;;;;;;;2.05;0.98;;;23.70;99.90;;;;;;7370864;32;20175;-58
2023/07/13 14:23:38;;;;;;;4.87;1.20;;;24.30;99.90;;;;;;7369978;32;20168;-57
2023/07/13 14:27:42;;;;;;;3.58;1.10;;;24.60;99.90;;;;;;7365736;32;20100;-58
2023/07/13 14:31:44;;;;;;;5.70;1.30;;;24.50;99.90;;;;;;7370554;32;20098;-58
2023/07/13 14:35:47;;;;;;;4.62;1.45;;;24.40;99.90;;;;;;7375867;32;20179;-57
2023/07/13 14:39:51;;;;;;;6.22;1.10;;;23.70;99.90;;;;;;7368811;32;20626;-59
2023/07/13 14:43:54;;;;;;;4.87;1.40;;;23.40;99.90;;;;;;7372009;32;20138;-57
2023/07/13 14:47:56;;;;;;;3.83;1.20;;;23.20;99.90;;;;;;7373490;32;20125;-57
2023/07/13 14:52:12;;;;;;;7.00;1.60;;;23.00;99.90;;;;;;7371610;32;20600;-57
2023/07/13 14:56:14;;;;;;;6.18;1.60;;;22.60;99.90;;;;;;7374978;32;20174;-58
2023/07/13 15:00:19;;;;;;;5.28;1.40;;;22.40;99.90;;;;;;7374745;32;20389;-57
2023/07/13 15:04:21;;;;;;;5.45;1.62;;;22.20;99.90;;;;;;7377039;32;20610;-57
2023/07/13 15:08:23;;;;;;;5.20;1.55;;;22.00;99.90;;;;;;7369868;32;20181;-57
2023/07/13 15:12:25;;;;;;;5.28;1.33;;;21.90;99.90;;;;;;7376760;32;20221;-57
2023/07/13 15:16:27;;;;;;;7.07;1.50;;;21.80;99.90;;;;;;7371752;32;20627;-57
2023/07/13 15:20:32;;;;;;;4.70;1.30;;;21.50;99.90;;;;;;7365802;32;20103;-57
2023/07/13 15:24:37;;;;;;;5.55;1.40;;;21.40;99.90;;;;;;7368206;32;20107;-56
2023/07/13 15:28:40;;;;;;;4.37;1.30;;;21.40;99.90;;;;;;7376909;32;20512;-56
2023/07/13 15:32:45;;;;;;;5.40;1.40;;;21.30;99.90;;;;;;7365603;32;20675;-56
2023/07/13 15:36:47;;;;;;;6.62;1.40;;;21.40;99.90;;;;;;7377857;32;20269;-57
2023/07/13 15:40:50;;;;;;;3.85;1.50;;;21.30;99.90;;;;;;7380006;32;20107;-57
2023/07/13 15:44:52;;;;;;;5.62;1.60;;;21.20;99.90;;;;;;7367628;32;20111;-57
2023/07/13 15:48:57;;;;;;;6.70;1.40;;;21.10;99.90;;;;;;7368796;32;20450;-57
2023/07/13 15:53:02;;;;;;;8.15;1.70;;;20.90;99.90;;;;;;7372704;32;20131;-58
2023/07/13 15:57:08;;;;;;;5.05;1.27;;;20.60;99.90;;;;;;7367014;32;20111;-57
2023/07/13 16:01:11;;;;;;;4.78;1.17;;;20.50;99.90;;;;;;7371573;32;20161;-58
2023/07/13 16:05:13;;;;;;;5.60;1.90;;;20.30;99.90;;;;;;7370486;32;20559;-57
2023/07/13 16:09:21;;;;;;;4.37;1.90;;;20.10;99.90;;;;;;7366372;32;20465;-57
2023/07/13 16:13:24;;;;;;;5.15;1.77;;;20.10;99.90;;;;;;7370123;32;20187;-57
2023/07/13 16:17:28;;;;;;;5.95;1.40;;;20.00;99.90;;;;;;7369387;32;20122;-57
2023/07/13 16:21:41;;;;;;;3.47;1.42;;;20.00;99.90;;;;;;7368631;32;20220;-58
2023/07/13 16:25:44;;;;;;;7.78;1.70;;;20.00;99.90;;;;;;7374968;32;20111;-57
2023/07/13 16:29:46;;;;;;;5.85;1.70;;;19.90;99.90;;;;;;7367754;32;20112;-58
2023/07/13 16:33:48;;;;;;;6.10;1.15;;;20.00;99.90;;;;;;7373067;32;20580;-57
2023/07/13 16:37:50;;;;;;;5.45;1.30;;;20.10;99.90;;;;;;7379229;32;20539;-55
2023/07/13 16:42:05;;;;;;;6.65;1.35;;;19.90;99.90;;;;;;7369557;32;20095;-56
2023/07/13 16:46:11;;;;;;;4.15;1.45;;;19.90;99.90;;;;;;7375197;32;20108;-57
2023/07/13 16:50:15;;;;;;;5.40;1.45;;;19.90;99.90;;;;;;7366846;32;20122;-57
2023/07/13 16:54:18;;;;;;;3.25;1.37;;;20.00;99.90;;;;;;7374939;32;20202;-57
2023/07/13 16:58:20;;;;;;;5.20;1.30;;;19.80;99.90;;;;;;7368213;32;20130;-57
2023/07/13 17:02:27;;;;;;;5.22;1.65;;;19.80;99.90;;;;;;7371714;32;20111;-56
2023/07/13 17:06:29;;;;;;;5.57;1.50;;;19.90;99.90;;;;;;7369913;32;20154;-56
2023/07/13 17:10:32;;;;;;;3.45;1.17;;;19.80;99.90;;;;;;7366973;32;20137;-56
2023/07/13 17:14:35;;;;;;;3.28;1.20;;;19.90;99.90;;;;;;7372347;32;20492;-56
2023/07/13 17:18:38;;;;;;;3.10;1.20;;;19.90;99.90;;;;;;7375675;32;20463;-56
2023/07/13 17:22:40;;;;;;;3.58;1.10;;;19.80;99.90;;;;;;7368162;32;20119;-56
2023/07/13 17:26:42;;;;;;;3.25;1.30;;;19.90;99.90;;;;;;7368885;32;20170;-56
2023/07/13 17:30:44;;;;;;;3.95;1.17;;;19.90;99.90;;;;;;7367800;32;20199;-56
2023/07/13 17:34:46;;;;;;;5.05;1.45;;;20.00;99.90;;;;;;7374067;32;20145;-56
2023/07/13 17:38:50;;;;;;;4.55;1.90;;;20.00;99.90;;;;;;7373805;32;20561;-56
2023/07/13 17:42:56;;;;;;;3.50;0.98;;;20.10;99.90;;;;;;7366989;32;20477;-56
2023/07/13 17:46:59;;;;;;;2.25;1.08;;;20.20;99.90;;;;;;7372601;32;20598;-56
2023/07/13 17:51:01;;;;;;;2.37;1.20;;;20.20;99.90;;;;;;7362958;32;20103;-56
2023/07/13 17:55:21;;;;;;;3.70;0.90;;;20.30;99.90;;;;;;7375706;32;20129;-55
2023/07/13 17:59:23;;;;;;;4.87;1.45;;;20.40;99.90;;;;;;7371682;32;20106;-56
2023/07/13 18:03:34;;;;;;;5.65;1.15;;;20.30;99.90;;;;;;7371187;32;20161;-56
2023/07/13 18:07:36;;;;;;;3.22;0.93;;;20.30;99.90;;;;;;7361340;32;20107;-56
2023/07/13 18:11:38;;;;;;;4.12;1.33;;;20.30;99.90;;;;;;7363073;32;20700;-56
2023/07/13 18:15:40;;;;;;;3.53;1.12;;;20.40;99.90;;;;;;7367244;32;20178;-56
2023/07/13 18:19:46;;;;;;;3.22;1.10;;;20.40;99.90;;;;;;7379457;32;20094;-56
2023/07/13 18:23:49;;;;;;;3.67;1.20;;;20.30;99.90;;;;;;7373338;32;20185;-57
2023/07/13 18:27:51;;;;;;;3.72;1.20;;;20.20;99.90;;;;;;7366139;32;20098;-57
2023/07/13 18:31:57;;;;;;;2.97;1.15;;;20.10;99.90;;;;;;7373960;32;20461;-56
2023/07/13 18:36:00;;;;;;;4.62;1.25;;;20.00;99.90;;;;;;7366804;32;20138;-57
2023/07/13 18:40:07;;;;;;;2.87;1.15;;;20.00;99.90;;;;;;7372058;32;20180;-56
2023/07/13 18:44:09;;;;;;;4.20;1.13;;;19.80;99.90;;;;;;7369385;32;20535;-56
2023/07/13 18:48:17;;;;;;;2.70;1.12;;;19.80;99.90;;;;;;7374955;32;20536;-56
2023/07/13 18:52:21;;;;;;;3.50;1.58;;;19.70;99.90;;;;;;7368747;32;20183;-56
2023/07/13 18:56:23;;;;;;;2.60;1.30;;;19.60;99.90;;;;;;7376010;32;20126;-56
2023/07/13 19:00:27;;;;;;;3.20;1.40;;;19.60;99.90;;;;;;7363820;32;20134;-56
2023/07/13 19:04:31;;;;;;;6.35;1.52;;;19.40;99.90;;;;;;7376514;32;20197;-56
2023/07/13 19:08:33;;;;;;;4.18;1.23;;;19.50;99.90;;;;;;7374772;32;20181;-57
2023/07/13 19:12:35;;;;;;;5.60;1.37;;;19.20;99.90;;;;;;7370794;32;20121;-56
2023/07/13 19:16:38;;;;;;;2.87;1.30;;;19.10;99.90;;;;;;7373191;32;20129;-56
2023/07/13 19:20:41;;;;;;;2.58;1.42;;;19.00;99.90;;;;;;7373122;32;20122;-56
2023/07/13 19:24:43;;;;;;;7.60;4.50;;;18.90;99.90;;;;;;7365352;32;20582;-56
2023/07/13 19:28:45;;;;;;;5.55;2.83;;;18.60;99.90;;;;;;7368998;32;20508;-56
2023/07/13 19:32:47;;;;;;;4.18;1.30;;;18.40;99.90;;;;;;7374316;32;20210;-57
2023/07/13 19:37:04;;;;;;;6.68;1.50;;;18.20;99.90;;;;;;7379553;32;20209;-57
2023/07/13 19:41:10;;;;;;;6.05;1.87;;;18.00;99.90;;;;;;7375952;32;20111;-56
2023/07/13 19:45:21;;;;;;;11.45;5.35;;;17.80;99.90;;;;;;7378717;32;20103;-56
2023/07/13 19:49:23;;;;;;;5.47;3.28;;;17.60;99.90;;;;;;7375893;32;20535;-57
2023/07/13 19:53:25;;;;;;;4.35;1.37;;;17.50;99.90;;;;;;7351955;32;20368;-56
2023/07/13 19:57:28;;;;;;;6.68;2.65;;;17.20;99.90;;;;;;7376703;32;20107;-55
2023/07/13 20:01:30;;;;;;;4.25;2.85;;;17.00;99.90;;;;;;7377676;32;20127;-55
2023/07/13 20:05:36;;;;;;;9.52;4.93;;;16.90;99.90;;;;;;7378440;32;20257;-55
2023/07/13 20:09:38;;;;;;;7.32;2.17;;;16.70;99.90;;;;;;7377919;32;20197;-55
2023/07/13 20:13:44;;;;;;;4.37;1.90;;;16.50;99.90;;;;;;7377584;32;20506;-55
2023/07/13 20:17:50;;;;;;;4.22;1.87;;;16.30;99.90;;;;;;7374625;32;20126;-55
2023/07/13 20:21:52;;;;;;;7.47;4.18;;;16.20;99.90;;;;;;7367308;32;20167;-55
2023/07/13 20:25:55;;;;;;;2.85;1.58;;;16.20;99.90;;;;;;7376812;32;20130;-55
2023/07/13 20:29:57;;;;;;;6.22;1.85;;;16.20;99.90;;;;;;7377313;32;20129;-55
2023/07/13 20:34:02;;;;;;;5.65;2.10;;;16.00;99.90;;;;;;7374169;32;20158;-55
2023/07/13 20:38:06;;;;;;;5.28;2.35;;;15.90;99.90;;;;;;7380235;32;20594;-55
2023/07/13 20:42:10;;;;;;;3.70;1.55;;;16.00;99.90;;;;;;7380253;32;20178;-55
2023/07/13 20:46:16;;;;;;;5.87;1.52;;;15.90;99.90;;;;;;7381396;32;20103;-55
2023/07/13 20:50:25;;;;;;;10.82;2.00;;;15.90;99.90;;;;;;7367849;32;20122;-55
2023/07/13 20:54:27;;;;;;;6.12;1.80;;;15.80;99.90;;;;;;7375999;32;20129;-55
2023/07/13 20:58:29;;;;;;;4.78;2.20;;;15.80;99.90;;;;;;7373135;32;20115;-55
2023/07/13 21:02:32;;;;;;;3.25;1.70;;;15.70;99.90;;;;;;7378798;32;20122;-55
2023/07/13 21:06:34;;;;;;;3.87;1.60;;;15.70;99.90;;;;;;7375099;32;21012;-55
2023/07/13 21:10:37;;;;;;;5.90;1.80;;;15.60;99.90;;;;;;7369974;32;20509;-55